ADDS METAR Data INFO
IDs: Format: Raw Decoded Include TAF

Data at: 1236 UTC 22 Feb 2018

PAEM 221231Z AUTO 28022KT 9SM -SN OVC006 M02/M03 A2990 RMK AO2 PK WND 28027/1219 UPB01E10SNE01B10 CIG 005V010 P0000 FZRANO
PAEM 221156Z AUTO 27020KT 7SM -SN OVC004 M01/M01 A2987 RMK AO2 SLP174 P0000 60000 T10061011 10006 21006 53006 FZRANO
PAEM 221113Z AUTO 23014KT 4SM -SN BR OVC004 00/00 A2986 RMK AO2 P0000 FZRANO
PAEM 221056Z AUTO 22014KT 2SM -SN BR OVC004 00/00 A2986 RMK AO2 RAE35SNB35 SLP172 P0000 T00000000 FZRANO
PAEM 220956Z AUTO 20018KT 8SM -RA OVC004 01/00 A2985 RMK AO2 UPB17E40RAB50 SLP169 P0000 T00060000 FZRANO
PAEM 220856Z AUTO 19015KT 8SM OVC004 01/00 A2985 RMK AO2 UPB08E10SNE08 SLP169 P0000 60000 T00060000 58008 FZRANO
PAEM 220832Z AUTO 19015G21KT 5SM BR OVC004 00/00 A2986 RMK AO2 UPB08E10SNE08 P0000 FZRANO
PAEM 220803Z AUTO 19018G25KT 2 1/2SM -SN BR OVC004 00/00 A2986 RMK AO2 P0000 FZRANO
PAEM 220756Z AUTO 19022G25KT 3SM -SN BR OVC004 00/00 A2987 RMK AO2 UPB22E33SNB33 SLP173 P0000 T00000000 400111017 FZRANO
PAEM 220744Z AUTO 18015KT 3SM -SN BR OVC004 00/00 A2986 RMK AO2 UPB22E33SNB33 P0000 FZRANO
PAEM 220737Z AUTO 19015KT 1 3/4SM -SN BR OVC004 00/00 A2986 RMK AO2 UPB22E33SNB33 P0000 FZRANO
PAEM 220729Z AUTO 19016KT 6SM UP BR OVC004 00/00 A2987 RMK AO2 UPB22 CIG 003V006 P0000 FZRANO
PAEM 220656Z AUTO 18014KT 10SM OVC006 01/M01 A2987 RMK AO2 SLP174 T00061006 FZRANO
PAEM 220647Z AUTO 18015KT 10SM OVC006 01/M01 A2987 RMK AO2 CIG 004V008 FZRANO
PAEM 220624Z AUTO 20013G21KT 10SM OVC004 01/M01 A2987 RMK AO2 FZRANO
PAEM 220556Z AUTO 20014KT 10SM OVC006 00/M01 A2988 RMK AO2 SLP177 60000 T00001006 10006 21006 58006 FZRANO
PAEM 220456Z AUTO 18011KT 10SM OVC008 00/M01 A2989 RMK AO2 UPE12B30E35SNB12E30 SLP181 P0000 T00001011 FZRANO
PAEM 220449Z AUTO 19010KT 10SM BKN008 OVC012 00/M01 A2989 RMK AO2 UPE12B30E35SNB12E30 P0000 FZRANO
PAEM 220433Z AUTO 20009G19KT 10SM UP BKN010 OVC016 00/M01 A2989 RMK AO2 UPE12B30SNB12E30 CIG 007V012 P0000 FZRANO
PAEM 220425Z AUTO 21015KT 4SM -SN BR BKN008 OVC014 M01/M01 A2990 RMK AO2 UPE12SNB12 CIG 006V010 P0000 FZRANO
PAEM 220415Z AUTO 21018G22KT 1 3/4SM -SN BR OVC008 M01/M01 A2990 RMK AO2 UPE12SNB12 CIG 006V010 P0000 FZRANO
PAEM 220356Z AUTO 21015G19KT 10SM UP OVC008 00/M01 A2991 RMK AO2 PK WND 19027/0309 UPB46 SLP187 P0000 T00001011 FZRANO
PAEM 220034Z AUTO 20015KT 1 3/4SM UP BR OVC003 01/00 A2998 RMK AO2 UPB27 P0000 FZRANO
PAEM 212356Z AUTO 18018KT 10SM OVC003 01/00 A2997 RMK AO2 SLP209 60000 T00060000 10011 20006 56019 FZRANO
PAEM 212256Z AUTO 17018KT 5SM BR OVC003 01/01 A2997 RMK AO2 SLP209 T00060006 FZRANO
PAEM 212253Z AUTO 17018KT 3SM BR OVC003 01/01 A2998 RMK AO2 FZRANO
PAEM 212229Z AUTO 17016KT 1 3/4SM BR OVC003 01/01 A3000 RMK AO2 FZRANO
PAEM 212202Z AUTO 18013KT 3SM BR OVC003 01/01 A3002 RMK AO2 FZRANO
PAEM 212156Z AUTO 17016KT 1 1/2SM BR OVC003 01/01 A3002 RMK AO2 RAE06UPB06E08 SLP226 P0000 T00060006 FZRANO
PAEM 212151Z AUTO 18016KT 1 3/4SM BR OVC003 01/01 A3002 RMK AO2 RAE06UPB06E08 P0000 FZRANO
PAEM 212142Z AUTO 18015KT 5SM BR OVC003 01/01 A3003 RMK AO2 RAE06UPB06E08 P0000 FZRANO
PAEM 212132Z AUTO 18017KT 2SM BR OVC003 01/00 A3003 RMK AO2 RAE06UPB06E08 P0000 FZRANO
PAEM 212117Z AUTO 17016KT 1SM BR OVC003 01/00 A3003 RMK AO2 RAE06UPB06E08 P0000 FZRANO
PAEM 212109Z AUTO 18017KT 2SM BR OVC003 01/00 A3003 RMK AO2 RAE06UPB06E08 P0000 FZRANO
PAEM 212104Z AUTO 19015KT 1SM -RA BR OVC003 01/01 A3003 RMK AO2 P0000 FZRANO
PAEM 212056Z AUTO 18014KT 1/2SM -RA FG OVC003 01/01 A3003 RMK AO2 UPE29B49E54RAB15E26B54 SLP229 P0000 60000 T00060006 51006 FZRANO
PAEM 212051Z AUTO 18017KT 1/2SM UP FG OVC003 01/01 A3003 RMK AO2 UPE29B49RAB15E26 P0000 FZRANO
PAEM 212045Z AUTO 17016KT 1SM BR OVC003 01/00 A3002 RMK AO2 UPE29RAB15E26 P0000 FZRANO
PAEM 212026Z AUTO 19015KT 1 1/4SM UP BR OVC003 01/01 A3003 RMK AO2 RAB15E26 P0000 FZRANO
PAEM 212022Z AUTO 19017KT 3/4SM -RA BR OVC003 01/01 A3002 RMK AO2 UPE15RAB15 P0000 FZRANO
PAEM 212014Z AUTO 18017KT 1/4SM UP FG OVC003 01/01 A3002 RMK AO2 P0000 FZRANO
PAEM 212006Z AUTO 17016KT 3/4SM BR OVC003 01/01 A3002 RMK AO2 UPE1959 P0000 FZRANO
PAEM 211956Z AUTO 18014KT 1SM UP BR OVC003 01/01 A3002 RMK AO2 RAB20E49UPB49 SLP226 P0000 T00060006 FZRANO
PAEM 211938Z AUTO 18016KT 1/2SM -RA FG OVC003 01/01 A3002 RMK AO2 RAB20 P0000 FZRANO
PAEM 211923Z AUTO 18014KT 1/4SM -RA FG OVC003 01/01 A3002 RMK AO2 RAB20 P0000 FZRANO
PAEM 211918Z AUTO 18014KT 3/4SM BR OVC003 01/01 A3002 RMK AO2 FZRANO
PAEM 211915Z AUTO 17014KT 1 3/4SM BR OVC003 01/01 A3002 RMK AO2 FZRANO
PAEM 211856Z AUTO 19013KT 10SM OVC003 01/01 A3002 RMK AO2 UPE1757 SLP226 T00110006 FZRANO
PAEM 211756Z AUTO 19013KT 3SM UP BR OVC003 01/01 A3001 RMK AO2 UPE01B30RAB21E30 SLP223 P0000 60000 T00060006 10011 21011 50003 FZRANO
PAEM 211720Z AUTO 19017KT 1 3/4SM BR OVC003 01/01 A3002 RMK AO2 UPE01 P0000 FZRANO
PAEM 211709Z AUTO 19019KT 4SM BR OVC003 01/01 A3002 RMK AO2 UPE01 P0000 FZRANO
PAEM 211656Z AUTO 19018KT 5SM UP BR OVC005 01/01 A3002 RMK AO2 UPB11 SLP224 P0000 T00110006 FZRANO
PAEM 211556Z AUTO 16019KT 4SM BR OVC005 01/00 A3001 RMK AO2 UPE44 SLP223 P0000 T00060000 FZRANO
PAEM 211551Z AUTO 16019KT 3SM BR OVC005 01/00 A3001 RMK AO2 UPE44 P0000 FZRANO
PAEM 211432Z AUTO 14018KT 3SM UP BR OVC007 00/M01 A3004 RMK AO2 CIG 004V010 P0000 FZRANO
PAEM 211356Z AUTO 13019KT 2 1/2SM UP BR BKN005 OVC010 M01/M01 A3005 RMK AO2 PK WND 12026/1320 UPB54SNE54 CIG 004V008 SLP237 P0000 T10061011 FZRANO
PAEM 211333Z AUTO 12019KT 2SM -SN BR OVC005 M01/M02 A3007 RMK AO2 PK WND 12026/1320 CIG 004V010 P0000 FZRANO
PAEM 211325Z AUTO 12019G26KT 2SM -SN BR OVC007 M01/M02 A3008 RMK AO2 PK WND 12026/1320 CIG 005V008 P0000 FZRANO
PAEM 211314Z AUTO 12019KT 1 3/4SM -SN BR OVC007 M01/M02 A3008 RMK AO2 CIG 005V008 P0000 FZRANO
PAEM 211256Z AUTO 12019KT 1 1/2SM -SN BR OVC005 M01/M02 A3010 RMK AO2 SLP251 P0000 T10061017 FZRANO
PAEM 211248Z AUTO 12019KT 2SM -SN BR BKN005 BKN015 OVC032 M01/M02 A3010 RMK AO2 P0000 FZRANO
PAEM 211235Z AUTO 12016KT 3SM -SN BR BKN005 OVC015 M01/M02 A3011 RMK AO2 CIG 005V010 P0000 FZRANO
PAEM 210756Z AUTO 15011KT 10SM FEW007 BKN050 M01/M02 A3031 RMK AO2 SLP324 T10111022 400061022 FZRANO
PAEM 210656Z AUTO 16012KT 10SM OVC055 M01/M02 A3033 RMK AO2 SLP331 T10111022 FZRANO
PAEM 210556Z AUTO 17013KT 10SM OVC055 M01/M02 A3034 RMK AO2 SLP334 T10061022 10006 21006 56011 FZRANO